sensor_id;sensor_type;location;lat;lon;timestamp;pressure;altitude;pressure_sealevel;temperature;humidity
69971;BME280;57301;50.328;8.542;2024-01-30T00:01:29;99798.22;;;0.47;89.45
69971;BME280;57301;50.328;8.542;2024-01-30T00:03:56;99802.28;;;0.56;89.19
69971;BME280;57301;50.328;8.542;2024-01-30T00:06:22;99799.78;;;0.53;89.21
69971;BME280;57301;50.328;8.542;2024-01-30T00:08:50;99804.31;;;0.49;89.13
69971;BME280;57301;50.328;8.542;2024-01-30T00:11:16;99797.94;;;0.55;88.61
69971;BME280;57301;50.328;8.542;2024-01-30T00:13:43;99803.63;;;0.44;88.87
69971;BME280;57301;50.328;8.542;2024-01-30T00:16:20;99792.72;;;0.32;89.00
69971;BME280;57301;50.328;8.542;2024-01-30T00:18:47;99798.94;;;0.29;88.94
69971;BME280;57301;50.328;8.542;2024-01-30T00:21:14;99793.22;;;0.41;89.04
69971;BME280;57301;50.328;8.542;2024-01-30T00:23:41;99795.00;;;0.41;88.46
69971;BME280;57301;50.328;8.542;2024-01-30T00:26:07;99801.69;;;0.71;87.36
69971;BME280;57301;50.328;8.542;2024-01-30T00:28:34;99795.38;;;0.53;87.88
69971;BME280;57301;50.328;8.542;2024-01-30T00:31:00;99792.28;;;0.44;88.03
69971;BME280;57301;50.328;8.542;2024-01-30T00:33:27;99789.88;;;0.38;88.50
69971;BME280;57301;50.328;8.542;2024-01-30T00:35:53;99797.84;;;0.35;88.15
69971;BME280;57301;50.328;8.542;2024-01-30T00:38:20;99792.03;;;0.26;88.58
69971;BME280;57301;50.328;8.542;2024-01-30T00:40:46;99796.06;;;0.12;89.06
69971;BME280;57301;50.328;8.542;2024-01-30T00:43:13;99795.69;;;0.22;88.66
69971;BME280;57301;50.328;8.542;2024-01-30T00:45:40;99792.50;;;0.14;88.83
69971;BME280;57301;50.328;8.542;2024-01-30T00:48:06;99790.09;;;0.32;88.12
69971;BME280;57301;50.328;8.542;2024-01-30T00:50:33;99786.97;;;0.22;88.23
69971;BME280;57301;50.328;8.542;2024-01-30T00:52:59;99796.91;;;0.12;89.45
69971;BME280;57301;50.328;8.542;2024-01-30T00:55:26;99794.50;;;0.08;90.04
69971;BME280;57301;50.328;8.542;2024-01-30T00:57:52;99797.28;;;0.26;89.07
69971;BME280;57301;50.328;8.542;2024-01-30T01:00:19;99802.16;;;0.12;89.09
69971;BME280;57301;50.328;8.542;2024-01-30T01:02:47;99802.66;;;0.00;89.29
69971;BME280;57301;50.328;8.542;2024-01-30T01:05:13;99802.19;;;-0.13;89.91
69971;BME280;57301;50.328;8.542;2024-01-30T01:07:40;99792.97;;;-0.23;90.99
69971;BME280;57301;50.328;8.542;2024-01-30T01:10:08;99795.16;;;-0.11;90.22
69971;BME280;57301;50.328;8.542;2024-01-30T01:12:35;99799.91;;;0.03;89.87
69971;BME280;57301;50.328;8.542;2024-01-30T01:15:02;99795.84;;;-0.06;89.93
69971;BME280;57301;50.328;8.542;2024-01-30T01:17:29;99800.03;;;0.00;89.73
69971;BME280;57301;50.328;8.542;2024-01-30T01:19:55;99802.16;;;0.12;89.51
69971;BME280;57301;50.328;8.542;2024-01-30T01:22:22;99799.97;;;0.02;89.33
69971;BME280;57301;50.328;8.542;2024-01-30T01:24:49;99793.66;;;0.06;89.21
69971;BME280;57301;50.328;8.542;2024-01-30T01:27:15;99791.72;;;-0.13;90.25
69971;BME280;57301;50.328;8.542;2024-01-30T01:29:42;99794.94;;;-0.05;89.68
69971;BME280;57301;50.328;8.542;2024-01-30T01:32:09;99791.50;;;-0.07;90.14
69971;BME280;57301;50.328;8.542;2024-01-30T01:34:35;99788.22;;;-0.12;89.87
69971;BME280;57301;50.328;8.542;2024-01-30T01:37:02;99781.69;;;-0.02;89.49
69971;BME280;57301;50.328;8.542;2024-01-30T01:39:29;99785.75;;;-0.16;89.98
69971;BME280;57301;50.328;8.542;2024-01-30T01:41:55;99780.03;;;-0.28;90.27
69971;BME280;57301;50.328;8.542;2024-01-30T01:44:22;99780.97;;;-0.05;89.78
69971;BME280;57301;50.328;8.542;2024-01-30T01:46:48;99788.44;;;0.06;88.71
69971;BME280;57301;50.328;8.542;2024-01-30T01:49:15;99787.44;;;-0.15;89.38
69971;BME280;57301;50.328;8.542;2024-01-30T01:51:43;99790.41;;;-0.01;89.43
69971;BME280;57301;50.328;8.542;2024-01-30T01:54:11;99783.97;;;-0.16;89.45
69971;BME280;57301;50.328;8.542;2024-01-30T01:56:38;99781.97;;;-0.09;89.37
69971;BME280;57301;50.328;8.542;2024-01-30T01:59:06;99779.84;;;0.02;88.46
69971;BME280;57301;50.328;8.542;2024-01-30T02:01:36;99776.53;;;-0.03;89.27
69971;BME280;57301;50.328;8.542;2024-01-30T02:04:04;99774.06;;;-0.08;90.24
69971;BME280;57301;50.328;8.542;2024-01-30T02:06:31;99771.28;;;-0.03;89.84
69971;BME280;57301;50.328;8.542;2024-01-30T02:08:58;99772.19;;;-0.04;90.22
69971;BME280;57301;50.328;8.542;2024-01-30T02:11:25;99779.16;;;-0.03;90.01
69971;BME280;57301;50.328;8.542;2024-01-30T02:13:52;99778.16;;;-0.01;89.23
69971;BME280;57301;50.328;8.542;2024-01-30T02:16:18;99769.06;;;0.10;88.71
69971;BME280;57301;50.328;8.542;2024-01-30T02:18:45;99763.88;;;0.08;88.66
69971;BME280;57301;50.328;8.542;2024-01-30T02:21:17;99766.50;;;0.08;88.42
69971;BME280;57301;50.328;8.542;2024-01-30T02:23:44;99765.75;;;0.05;88.50
69971;BME280;57301;50.328;8.542;2024-01-30T02:26:12;99761.47;;;0.25;87.82
69971;BME280;57301;50.328;8.542;2024-01-30T02:28:39;99773.75;;;0.25;87.28
69971;BME280;57301;50.328;8.542;2024-01-30T02:31:05;99773.38;;;-0.13;88.58
69971;BME280;57301;50.328;8.542;2024-01-30T02:33:32;99771.09;;;-0.22;89.71
69971;BME280;57301;50.328;8.542;2024-01-30T02:35:59;99770.06;;;-0.18;89.08
69971;BME280;57301;50.328;8.542;2024-01-30T02:38:25;99769.88;;;-0.13;88.89
69971;BME280;57301;50.328;8.542;2024-01-30T02:40:53;99764.72;;;-0.15;89.09
69971;BME280;57301;50.328;8.542;2024-01-30T02:43:19;99771.44;;;-0.08;89.15
69971;BME280;57301;50.328;8.542;2024-01-30T02:45:46;99777.13;;;-0.20;89.88
69971;BME280;57301;50.328;8.542;2024-01-30T02:48:13;99766.09;;;-0.05;89.05
69971;BME280;57301;50.328;8.542;2024-01-30T02:50:39;99763.53;;;-0.06;89.37
69971;BME280;57301;50.328;8.542;2024-01-30T02:53:06;99764.13;;;-0.23;89.40
69971;BME280;57301;50.328;8.542;2024-01-30T02:55:33;99767.34;;;-0.15;89.55
69971;BME280;57301;50.328;8.542;2024-01-30T02:57:59;99767.47;;;-0.18;89.29
69971;BME280;57301;50.328;8.542;2024-01-30T03:00:26;99761.47;;;-0.21;88.86
69971;BME280;57301;50.328;8.542;2024-01-30T03:02:52;99768.53;;;-0.23;88.89
69971;BME280;57301;50.328;8.542;2024-01-30T03:05:19;99755.13;;;-0.16;88.61
69971;BME280;57301;50.328;8.542;2024-01-30T03:07:45;99759.53;;;-0.16;89.44
69971;BME280;57301;50.328;8.542;2024-01-30T03:10:12;99754.16;;;-0.13;88.76
69971;BME280;57301;50.328;8.542;2024-01-30T03:12:39;99749.78;;;-0.13;88.59
69971;BME280;57301;50.328;8.542;2024-01-30T03:15:05;99747.00;;;-0.08;88.08
69971;BME280;57301;50.328;8.542;2024-01-30T03:17:32;99750.88;;;-0.18;88.48
69971;BME280;57301;50.328;8.542;2024-01-30T03:19:59;99755.91;;;-0.12;88.55
69971;BME280;57301;50.328;8.542;2024-01-30T03:22:25;99753.97;;;-0.32;89.16
69971;BME280;57301;50.328;8.542;2024-01-30T03:24:52;99755.44;;;-0.23;88.55
69971;BME280;57301;50.328;8.542;2024-01-30T03:27:18;99750.19;;;-0.23;88.32
69971;BME280;57301;50.328;8.542;2024-01-30T03:29:45;99756.13;;;-0.18;88.24
69971;BME280;57301;50.328;8.542;2024-01-30T03:32:11;99753.81;;;-0.28;88.31
69971;BME280;57301;50.328;8.542;2024-01-30T03:34:38;99757.13;;;-0.22;88.92
69971;BME280;57301;50.328;8.542;2024-01-30T03:37:05;99760.47;;;-0.19;88.31
69971;BME280;57301;50.328;8.542;2024-01-30T03:39:31;99761.84;;;-0.32;89.00
69971;BME280;57301;50.328;8.542;2024-01-30T03:41:58;99761.88;;;-0.34;89.09
69971;BME280;57301;50.328;8.542;2024-01-30T03:44:24;99757.03;;;-0.44;89.33
69971;BME280;57301;50.328;8.542;2024-01-30T03:46:51;99754.19;;;-0.38;88.67
69971;BME280;57301;50.328;8.542;2024-01-30T03:49:17;99750.00;;;-0.44;88.50
69971;BME280;57301;50.328;8.542;2024-01-30T03:51:44;99748.00;;;-0.36;88.70
69971;BME280;57301;50.328;8.542;2024-01-30T03:54:11;99745.94;;;-0.28;87.80
69971;BME280;57301;50.328;8.542;2024-01-30T03:56:37;99749.78;;;-0.38;89.06
69971;BME280;57301;50.328;8.542;2024-01-30T03:59:04;99753.13;;;-0.33;88.32
69971;BME280;57301;50.328;8.542;2024-01-30T04:01:30;99744.56;;;-0.38;88.64
69971;BME280;57301;50.328;8.542;2024-01-30T04:03:57;99742.63;;;-0.33;88.86
69971;BME280;57301;50.328;8.542;2024-01-30T04:06:23;99735.69;;;-0.59;88.69
69971;BME280;57301;50.328;8.542;2024-01-30T04:08:50;99745.13;;;-0.53;88.79
69971;BME280;57301;50.328;8.542;2024-01-30T04:11:18;99741.84;;;-0.60;89.87
69971;BME280;57301;50.328;8.542;2024-01-30T04:13:45;99743.38;;;0.18;85.79
69971;BME280;57301;50.328;8.542;2024-01-30T04:16:20;99741.97;;;0.09;85.18
69971;BME280;57301;50.328;8.542;2024-01-30T04:18:49;99747.31;;;0.30;84.25
69971;BME280;57301;50.328;8.542;2024-01-30T04:21:16;99739.88;;;0.19;84.63
69971;BME280;57301;50.328;8.542;2024-01-30T04:23:42;99737.69;;;0.30;83.78
69971;BME280;57301;50.328;8.542;2024-01-30T04:26:09;99739.00;;;0.64;82.78
69971;BME280;57301;50.328;8.542;2024-01-30T04:28:35;99740.25;;;0.53;82.81
69971;BME280;57301;50.328;8.542;2024-01-30T04:31:02;99734.16;;;0.53;82.54
69971;BME280;57301;50.328;8.542;2024-01-30T04:33:28;99735.25;;;0.47;83.36
69971;BME280;57301;50.328;8.542;2024-01-30T04:35:55;99737.88;;;0.47;82.86
69971;BME280;57301;50.328;8.542;2024-01-30T04:38:21;99742.03;;;0.53;82.63
69971;BME280;57301;50.328;8.542;2024-01-30T04:40:48;99742.19;;;0.50;82.94
69971;BME280;57301;50.328;8.542;2024-01-30T04:43:14;99740.88;;;0.38;83.37
69971;BME280;57301;50.328;8.542;2024-01-30T04:45:42;99734.78;;;0.38;83.00
69971;BME280;57301;50.328;8.542;2024-01-30T04:48:08;99740.50;;;0.25;83.37
69971;BME280;57301;50.328;8.542;2024-01-30T04:50:35;99735.25;;;0.47;82.84
69971;BME280;57301;50.328;8.542;2024-01-30T04:53:02;99730.63;;;0.54;82.40
69971;BME280;57301;50.328;8.542;2024-01-30T04:55:29;99731.25;;;0.39;82.63
69971;BME280;57301;50.328;8.542;2024-01-30T04:57:55;99739.50;;;0.28;83.00
69971;BME280;57301;50.328;8.542;2024-01-30T05:00:22;99738.50;;;0.54;81.98
69971;BME280;57301;50.328;8.542;2024-01-30T05:02:48;99738.09;;;0.65;81.59
69971;BME280;57301;50.328;8.542;2024-01-30T05:05:15;99738.47;;;0.56;82.02
69971;BME280;57301;50.328;8.542;2024-01-30T05:07:43;99739.91;;;0.41;82.26
69971;BME280;57301;50.328;8.542;2024-01-30T05:10:09;99738.63;;;0.51;82.40
69971;BME280;57301;50.328;8.542;2024-01-30T05:12:36;99748.06;;;0.33;83.29
69971;BME280;57301;50.328;8.542;2024-01-30T05:15:03;99747.97;;;0.13;83.99
69971;BME280;57301;50.328;8.542;2024-01-30T05:17:29;99742.41;;;0.44;83.37
69971;BME280;57301;50.328;8.542;2024-01-30T05:19:56;99737.63;;;0.53;82.70
69971;BME280;57301;50.328;8.542;2024-01-30T05:22:22;99743.06;;;0.49;82.78
69971;BME280;57301;50.328;8.542;2024-01-30T05:24:49;99741.88;;;0.58;82.97
69971;BME280;57301;50.328;8.542;2024-01-30T05:27:16;99739.66;;;0.47;83.91
69971;BME280;57301;50.328;8.542;2024-01-30T05:29:42;99737.16;;;0.66;83.19
69971;BME280;57301;50.328;8.542;2024-01-30T05:32:09;99734.59;;;0.64;83.13
69971;BME280;57301;50.328;8.542;2024-01-30T05:34:36;99743.75;;;0.54;82.75
69971;BME280;57301;50.328;8.542;2024-01-30T05:37:03;99745.50;;;0.53;82.98
69971;BME280;57301;50.328;8.542;2024-01-30T05:39:30;99745.28;;;0.60;82.50
69971;BME280;57301;50.328;8.542;2024-01-30T05:41:59;99739.59;;;0.48;82.92
69971;BME280;57301;50.328;8.542;2024-01-30T05:44:26;99745.63;;;0.29;84.23
69971;BME280;57301;50.328;8.542;2024-01-30T05:46:52;99740.25;;;0.53;82.67
69971;BME280;57301;50.328;8.542;2024-01-30T05:49:18;99744.13;;;0.45;82.89
69971;BME280;57301;50.328;8.542;2024-01-30T05:51:45;99750.22;;;0.45;82.87
69971;BME280;57301;50.328;8.542;2024-01-30T05:54:12;99740.84;;;0.16;83.96
69971;BME280;57301;50.328;8.542;2024-01-30T05:56:42;99746.94;;;0.17;84.19
69971;BME280;57301;50.328;8.542;2024-01-30T05:59:09;99748.38;;;0.25;83.71
69971;BME280;57301;50.328;8.542;2024-01-30T06:01:35;99753.47;;;0.29;83.77
69971;BME280;57301;50.328;8.542;2024-01-30T06:04:02;99750.69;;;0.55;82.29
69971;BME280;57301;50.328;8.542;2024-01-30T06:06:29;99752.16;;;0.40;83.02
69971;BME280;57301;50.328;8.542;2024-01-30T06:08:55;99759.50;;;0.31;83.01
69971;BME280;57301;50.328;8.542;2024-01-30T06:11:22;99753.56;;;0.49;82.68
69971;BME280;57301;50.328;8.542;2024-01-30T06:13:48;99749.66;;;0.37;82.89
69971;BME280;57301;50.328;8.542;2024-01-30T06:16:15;99745.44;;;0.33;83.09
69971;BME280;57301;50.328;8.542;2024-01-30T06:18:42;99745.78;;;0.24;83.58
69971;BME280;57301;50.328;8.542;2024-01-30T06:21:08;99750.28;;;0.44;82.70
69971;BME280;57301;50.328;8.542;2024-01-30T06:23:38;99749.31;;;0.46;82.77
69971;BME280;57301;50.328;8.542;2024-01-30T06:26:06;99745.31;;;0.36;83.20
69971;BME280;57301;50.328;8.542;2024-01-30T06:28:33;99745.75;;;0.25;83.36
69971;BME280;57301;50.328;8.542;2024-01-30T06:31:03;99752.31;;;0.36;82.85
69971;BME280;57301;50.328;8.542;2024-01-30T06:33:29;99745.91;;;0.21;83.22
69971;BME280;57301;50.328;8.542;2024-01-30T06:35:56;99745.75;;;0.02;83.06
69971;BME280;57301;50.328;8.542;2024-01-30T06:38:22;99746.47;;;0.29;82.98
69971;BME280;57301;50.328;8.542;2024-01-30T06:40:52;99736.88;;;0.28;82.76
69971;BME280;57301;50.328;8.542;2024-01-30T06:43:18;99742.66;;;-0.09;84.28
69971;BME280;57301;50.328;8.542;2024-01-30T06:45:45;99748.53;;;0.21;83.54
69971;BME280;57301;50.328;8.542;2024-01-30T06:48:12;99750.53;;;0.14;83.00
69971;BME280;57301;50.328;8.542;2024-01-30T06:50:39;99747.28;;;0.08;82.90
69971;BME280;57301;50.328;8.542;2024-01-30T06:53:05;99741.59;;;0.20;83.06
69971;BME280;57301;50.328;8.542;2024-01-30T06:55:32;99749.38;;;-0.02;83.77
69971;BME280;57301;50.328;8.542;2024-01-30T06:57:58;99740.09;;;0.13;83.50
69971;BME280;57301;50.328;8.542;2024-01-30T07:00:25;99750.31;;;0.20;82.66
69971;BME280;57301;50.328;8.542;2024-01-30T07:02:51;99758.00;;;0.25;82.30
69971;BME280;57301;50.328;8.542;2024-01-30T07:05:18;99744.59;;;0.33;81.94
69971;BME280;57301;50.328;8.542;2024-01-30T07:07:47;99750.19;;;0.00;82.96
69971;BME280;57301;50.328;8.542;2024-01-30T07:10:14;99747.50;;;0.25;82.67
69971;BME280;57301;50.328;8.542;2024-01-30T07:12:43;99744.13;;;0.21;82.71
69971;BME280;57301;50.328;8.542;2024-01-30T07:15:10;99749.16;;;0.28;82.56
69971;BME280;57301;50.328;8.542;2024-01-30T07:17:36;99744.47;;;0.12;83.44
69971;BME280;57301;50.328;8.542;2024-01-30T07:20:04;99747.06;;;0.14;83.27
69971;BME280;57301;50.328;8.542;2024-01-30T07:22:34;99742.75;;;0.35;82.59
69971;BME280;57301;50.328;8.542;2024-01-30T07:25:01;99737.47;;;0.58;81.88
69971;BME280;57301;50.328;8.542;2024-01-30T07:27:27;99741.78;;;0.59;81.75
69971;BME280;57301;50.328;8.542;2024-01-30T07:29:54;99741.50;;;0.67;81.48
69971;BME280;57301;50.328;8.542;2024-01-30T07:32:20;99749.09;;;0.74;81.53
69971;BME280;57301;50.328;8.542;2024-01-30T07:34:47;99747.75;;;0.86;81.27
69971;BME280;57301;50.328;8.542;2024-01-30T07:37:32;99739.28;;;1.00;80.90
69971;BME280;57301;50.328;8.542;2024-01-30T07:39:58;99741.94;;;0.56;82.31
69971;BME280;57301;50.328;8.542;2024-01-30T07:42:25;99744.91;;;0.25;84.15
69971;BME280;57301;50.328;8.542;2024-01-30T07:44:52;99750.38;;;0.19;84.49
69971;BME280;57301;50.328;8.542;2024-01-30T07:47:18;99742.47;;;0.64;83.34
69971;BME280;57301;50.328;8.542;2024-01-30T07:49:45;99743.44;;;0.84;82.46
69971;BME280;57301;50.328;8.542;2024-01-30T07:52:12;99755.81;;;1.02;81.56
69971;BME280;57301;50.328;8.542;2024-01-30T07:54:38;99753.22;;;1.22;81.32
69971;BME280;57301;50.328;8.542;2024-01-30T07:57:05;99746.16;;;1.45;80.57
69971;BME280;57301;50.328;8.542;2024-01-30T07:59:32;99754.38;;;1.37;81.53
69971;BME280;57301;50.328;8.542;2024-01-30T08:01:58;99753.66;;;1.54;80.70
69971;BME280;57301;50.328;8.542;2024-01-30T08:04:25;99747.19;;;1.61;80.90
69971;BME280;57301;50.328;8.542;2024-01-30T08:06:51;99747.78;;;1.68;80.66
69971;BME280;57301;50.328;8.542;2024-01-30T08:09:18;99756.09;;;1.77;80.05
69971;BME280;57301;50.328;8.542;2024-01-30T08:11:44;99753.16;;;1.85;79.73
69971;BME280;57301;50.328;8.542;2024-01-30T08:14:11;99754.75;;;1.69;80.22
69971;BME280;57301;50.328;8.542;2024-01-30T08:16:39;99769.25;;;1.77;80.49
69971;BME280;57301;50.328;8.542;2024-01-30T08:19:06;99757.50;;;1.86;80.57
69971;BME280;57301;50.328;8.542;2024-01-30T08:21:33;99755.31;;;2.14;79.58
69971;BME280;57301;50.328;8.542;2024-01-30T08:24:05;99759.16;;;2.45;79.46
69971;BME280;57301;50.328;8.542;2024-01-30T08:26:33;99757.19;;;2.12;79.59
69971;BME280;57301;50.328;8.542;2024-01-30T08:29:01;99753.97;;;2.43;79.35
69971;BME280;57301;50.328;8.542;2024-01-30T08:31:27;99758.72;;;2.73;78.35
69971;BME280;57301;50.328;8.542;2024-01-30T08:33:54;99757.66;;;2.77;78.27
69971;BME280;57301;50.328;8.542;2024-01-30T08:36:21;99757.50;;;2.80;78.98
69971;BME280;57301;50.328;8.542;2024-01-30T08:38:47;99756.78;;;2.95;78.28
69971;BME280;57301;50.328;8.542;2024-01-30T08:41:14;99757.19;;;3.22;79.20
69971;BME280;57301;50.328;8.542;2024-01-30T08:43:41;99760.28;;;3.83;77.01
69971;BME280;57301;50.328;8.542;2024-01-30T08:46:07;99752.06;;;3.54;77.73
69971;BME280;57301;50.328;8.542;2024-01-30T08:48:35;99757.13;;;2.88;79.54
69971;BME280;57301;50.328;8.542;2024-01-30T08:51:02;99761.69;;;3.20;78.59
69971;BME280;57301;50.328;8.542;2024-01-30T08:53:29;99760.97;;;3.17;79.46
69971;BME280;57301;50.328;8.542;2024-01-30T08:55:55;99761.44;;;3.77;79.20
69971;BME280;57301;50.328;8.542;2024-01-30T08:58:25;99768.91;;;4.02;78.15
69971;BME280;57301;50.328;8.542;2024-01-30T09:00:52;99767.63;;;3.07;80.36
69971;BME280;57301;50.328;8.542;2024-01-30T09:03:19;99762.06;;;3.30;80.55
69971;BME280;57301;50.328;8.542;2024-01-30T09:05:46;99766.97;;;3.55;80.12
69971;BME280;57301;50.328;8.542;2024-01-30T09:08:12;99771.94;;;3.44;80.59
69971;BME280;57301;50.328;8.542;2024-01-30T09:10:39;99755.63;;;3.36;80.95
69971;BME280;57301;50.328;8.542;2024-01-30T09:13:05;99757.94;;;3.24;82.04
69971;BME280;57301;50.328;8.542;2024-01-30T09:15:32;99766.59;;;3.45;81.48
69971;BME280;57301;50.328;8.542;2024-01-30T09:17:59;99768.09;;;3.84;80.56
69971;BME280;57301;50.328;8.542;2024-01-30T09:20:25;99767.63;;;3.93;81.04
69971;BME280;57301;50.328;8.542;2024-01-30T09:22:52;99765.53;;;3.83;81.36
69971;BME280;57301;50.328;8.542;2024-01-30T09:25:18;99765.66;;;3.64;83.17
69971;BME280;57301;50.328;8.542;2024-01-30T09:27:46;99766.28;;;3.69;81.87
69971;BME280;57301;50.328;8.542;2024-01-30T09:30:13;99767.66;;;3.59;82.42
69971;BME280;57301;50.328;8.542;2024-01-30T09:32:40;99773.38;;;3.84;81.91
69971;BME280;57301;50.328;8.542;2024-01-30T09:35:07;99786.56;;;3.84;82.65
69971;BME280;57301;50.328;8.542;2024-01-30T09:37:34;99785.28;;;4.09;81.58
69971;BME280;57301;50.328;8.542;2024-01-30T09:40:01;99784.88;;;4.16;80.50
69971;BME280;57301;50.328;8.542;2024-01-30T09:42:36;99787.13;;;4.40;79.81
69971;BME280;57301;50.328;8.542;2024-01-30T09:45:04;99784.41;;;4.25;80.55
69971;BME280;57301;50.328;8.542;2024-01-30T09:47:33;99780.47;;;4.32;82.36
69971;BME280;57301;50.328;8.542;2024-01-30T09:50:06;99786.03;;;4.59;81.00
69971;BME280;57301;50.328;8.542;2024-01-30T09:52:32;99786.56;;;4.66;81.30
69971;BME280;57301;50.328;8.542;2024-01-30T09:55:00;99776.94;;;4.49;82.12
69971;BME280;57301;50.328;8.542;2024-01-30T09:57:27;99778.59;;;5.13;80.76
69971;BME280;57301;50.328;8.542;2024-01-30T09:59:54;99775.56;;;5.65;80.05
69971;BME280;57301;50.328;8.542;2024-01-30T10:02:21;99772.25;;;5.62;80.23
69971;BME280;57301;50.328;8.542;2024-01-30T10:04:48;99770.06;;;5.24;81.65
69971;BME280;57301;50.328;8.542;2024-01-30T10:07:17;99768.22;;;5.10;82.83
69971;BME280;57301;50.328;8.542;2024-01-30T10:09:44;99765.50;;;5.42;81.96
69971;BME280;57301;50.328;8.542;2024-01-30T10:12:11;99762.34;;;5.05;83.20
69971;BME280;57301;50.328;8.542;2024-01-30T10:14:39;99763.81;;;5.55;82.35
69971;BME280;57301;50.328;8.542;2024-01-30T10:17:08;99779.72;;;5.39;82.44
69971;BME280;57301;50.328;8.542;2024-01-30T10:19:47;99768.72;;;5.17;83.30
69971;BME280;57301;50.328;8.542;2024-01-30T10:22:13;99760.97;;;5.44;82.56
69971;BME280;57301;50.328;8.542;2024-01-30T10:24:40;99759.22;;;5.29;82.89
69971;BME280;57301;50.328;8.542;2024-01-30T10:27:07;99752.69;;;5.64;82.31
69971;BME280;57301;50.328;8.542;2024-01-30T10:29:33;99747.91;;;5.71;82.37
69971;BME280;57301;50.328;8.542;2024-01-30T10:32:04;99744.63;;;5.52;83.37
69971;BME280;57301;50.328;8.542;2024-01-30T10:34:32;99752.16;;;5.74;83.12
69971;BME280;57301;50.328;8.542;2024-01-30T10:39:37;99748.91;;;5.99;83.15
69971;BME280;57301;50.328;8.542;2024-01-30T10:42:05;99748.31;;;5.93;83.04
69971;BME280;57301;50.328;8.542;2024-01-30T10:44:37;99741.56;;;5.88;83.18
69971;BME280;57301;50.328;8.542;2024-01-30T10:47:10;99748.69;;;6.44;81.51
69971;BME280;57301;50.328;8.542;2024-01-30T10:49:40;99748.16;;;5.97;83.72
69971;BME280;57301;50.328;8.542;2024-01-30T10:52:10;99741.91;;;5.98;83.31
69971;BME280;57301;50.328;8.542;2024-01-30T10:54:37;99747.59;;;6.20;82.89
69971;BME280;57301;50.328;8.542;2024-01-30T10:57:04;99748.31;;;6.22;83.23
69971;BME280;57301;50.328;8.542;2024-01-30T10:59:33;99751.81;;;6.37;82.69
69971;BME280;57301;50.328;8.542;2024-01-30T11:02:00;99751.00;;;6.78;81.26
69971;BME280;57301;50.328;8.542;2024-01-30T11:04:27;99755.16;;;6.67;81.65
69971;BME280;57301;50.328;8.542;2024-01-30T11:06:54;99758.50;;;6.57;81.85
69971;BME280;57301;50.328;8.542;2024-01-30T11:09:20;99749.34;;;6.48;82.42
69971;BME280;57301;50.328;8.542;2024-01-30T11:11:57;99749.84;;;6.26;83.41
69971;BME280;57301;50.328;8.542;2024-01-30T11:14:30;99754.88;;;6.72;82.51
69971;BME280;57301;50.328;8.542;2024-01-30T11:17:06;99749.97;;;6.93;81.89
69971;BME280;57301;50.328;8.542;2024-01-30T11:19:33;99756.66;;;7.13;80.85
69971;BME280;57301;50.328;8.542;2024-01-30T11:22:00;99751.88;;;7.18;80.96
69971;BME280;57301;50.328;8.542;2024-01-30T11:24:28;99749.78;;;6.96;82.15
69971;BME280;57301;50.328;8.542;2024-01-30T11:27:08;99745.31;;;7.23;80.74
69971;BME280;57301;50.328;8.542;2024-01-30T11:29:36;99743.22;;;7.28;80.03
69971;BME280;57301;50.328;8.542;2024-01-30T11:32:06;99748.50;;;7.68;78.87
69971;BME280;57301;50.328;8.542;2024-01-30T11:34:33;99739.59;;;7.95;78.47
69971;BME280;57301;50.328;8.542;2024-01-30T11:37:04;99743.19;;;8.19;77.37
69971;BME280;57301;50.328;8.542;2024-01-30T11:39:35;99736.88;;;8.33;76.78
69971;BME280;57301;50.328;8.542;2024-01-30T11:42:03;99740.06;;;9.35;74.01
69971;BME280;57301;50.328;8.542;2024-01-30T11:44:31;99734.72;;;9.35;73.73
69971;BME280;57301;50.328;8.542;2024-01-30T11:46:58;99722.16;;;9.02;74.26
69971;BME280;57301;50.328;8.542;2024-01-30T11:49:25;99732.03;;;9.00;78.33
69971;BME280;57301;50.328;8.542;2024-01-30T11:51:52;99716.28;;;9.56;75.78
69971;BME280;57301;50.328;8.542;2024-01-30T11:54:19;99715.75;;;9.98;75.36
69971;BME280;57301;50.328;8.542;2024-01-30T11:56:46;99718.66;;;10.17;74.98
69971;BME280;57301;50.328;8.542;2024-01-30T11:59:13;99731.25;;;10.04;79.99
69971;BME280;57301;50.328;8.542;2024-01-30T12:01:40;99736.38;;;10.29;77.23
69971;BME280;57301;50.328;8.542;2024-01-30T12:04:07;99720.25;;;10.31;74.09
69971;BME280;57301;50.328;8.542;2024-01-30T12:06:38;99724.72;;;10.08;73.00
69971;BME280;57301;50.328;8.542;2024-01-30T12:09:05;99721.72;;;10.35;71.44
69971;BME280;57301;50.328;8.542;2024-01-30T12:11:32;99722.06;;;10.53;71.29
69971;BME280;57301;50.328;8.542;2024-01-30T12:13:59;99711.53;;;10.51;69.77
69971;BME280;57301;50.328;8.542;2024-01-30T12:16:26;99703.25;;;10.65;70.69
69971;BME280;57301;50.328;8.542;2024-01-30T12:19:00;99709.09;;;10.59;71.16
69971;BME280;57301;50.328;8.542;2024-01-30T12:21:28;99709.69;;;10.63;70.27
69971;BME280;57301;50.328;8.542;2024-01-30T12:23:56;99709.41;;;10.77;68.89
69971;BME280;57301;50.328;8.542;2024-01-30T12:26:24;99699.34;;;10.81;69.61
69971;BME280;57301;50.328;8.542;2024-01-30T12:28:55;99699.13;;;11.04;68.88
69971;BME280;57301;50.328;8.542;2024-01-30T12:31:28;99694.56;;;10.95;68.28
69971;BME280;57301;50.328;8.542;2024-01-30T12:33:55;99696.88;;;11.21;68.34
69971;BME280;57301;50.328;8.542;2024-01-30T12:36:25;99700.25;;;10.36;71.79
69971;BME280;57301;50.328;8.542;2024-01-30T12:38:52;99701.22;;;10.35;72.95
69971;BME280;57301;50.328;8.542;2024-01-30T12:41:20;99702.66;;;10.17;74.17
69971;BME280;57301;50.328;8.542;2024-01-30T12:43:46;99699.66;;;10.33;74.91
69971;BME280;57301;50.328;8.542;2024-01-30T12:46:16;99698.09;;;10.30;74.81
69971;BME280;57301;50.328;8.542;2024-01-30T12:48:43;99683.75;;;10.42;74.72
69971;BME280;57301;50.328;8.542;2024-01-30T12:51:10;99683.69;;;10.33;75.68
69971;BME280;57301;50.328;8.542;2024-01-30T12:53:37;99683.09;;;10.72;73.43
69971;BME280;57301;50.328;8.542;2024-01-30T12:56:03;99672.88;;;10.23;74.50
69971;BME280;57301;50.328;8.542;2024-01-30T12:58:30;99667.41;;;10.90;72.68
69971;BME280;57301;50.328;8.542;2024-01-30T13:00:56;99665.72;;;10.89;72.28
69971;BME280;57301;50.328;8.542;2024-01-30T13:03:24;99670.88;;;11.23;71.69
69971;BME280;57301;50.328;8.542;2024-01-30T13:05:51;99674.44;;;10.91;71.26
69971;BME280;57301;50.328;8.542;2024-01-30T13:08:17;99667.03;;;11.16;71.11
69971;BME280;57301;50.328;8.542;2024-01-30T13:10:44;99670.97;;;11.33;70.97